sensor_id;sensor_type;location;lat;lon;timestamp;temperature;humidity
75088;HTU21D;63664;44.868;40.600;2023-07-31T00:01:14;19.71;78.49
75088;HTU21D;63664;44.868;40.600;2023-07-31T00:03:40;19.70;78.55
75088;HTU21D;63664;44.868;40.600;2023-07-31T00:06:06;19.70;78.61
75088;HTU21D;63664;44.868;40.600;2023-07-31T00:08:33;19.66;78.88
75088;HTU21D;63664;44.868;40.600;2023-07-31T00:10:59;19.63;79.06
75088;HTU21D;63664;44.868;40.600;2023-07-31T00:13:25;19.63;79.11
75088;HTU21D;63664;44.868;40.600;2023-07-31T00:15:52;19.60;79.21
75088;HTU21D;63664;44.868;40.600;2023-07-31T00:18:18;19.57;79.39
75088;HTU21D;63664;44.868;40.600;2023-07-31T00:20:44;19.55;79.61
75088;HTU21D;63664;44.868;40.600;2023-07-31T00:23:10;19.55;79.63
75088;HTU21D;63664;44.868;40.600;2023-07-31T00:25:36;19.52;79.76
75088;HTU21D;63664;44.868;40.600;2023-07-31T00:28:03;19.51;79.94
75088;HTU21D;63664;44.868;40.600;2023-07-31T00:30:29;19.48;80.11
75088;HTU21D;63664;44.868;40.600;2023-07-31T00:32:55;19.47;80.24
75088;HTU21D;63664;44.868;40.600;2023-07-31T00:35:21;19.46;80.38
75088;HTU21D;63664;44.868;40.600;2023-07-31T00:37:48;19.44;80.44
75088;HTU21D;63664;44.868;40.600;2023-07-31T00:40:14;19.40;80.62
75088;HTU21D;63664;44.868;40.600;2023-07-31T00:42:40;19.36;80.73
75088;HTU21D;63664;44.868;40.600;2023-07-31T00:45:08;19.31;80.81
75088;HTU21D;63664;44.868;40.600;2023-07-31T00:47:34;19.27;80.91
75088;HTU21D;63664;44.868;40.600;2023-07-31T00:50:00;19.23;81.01
75088;HTU21D;63664;44.868;40.600;2023-07-31T00:52:27;19.22;81.08
75088;HTU21D;63664;44.868;40.600;2023-07-31T00:54:53;19.18;81.10
75088;HTU21D;63664;44.868;40.600;2023-07-31T00:57:19;19.14;81.27
75088;HTU21D;63664;44.868;40.600;2023-07-31T00:59:45;19.13;81.35
75088;HTU21D;63664;44.868;40.600;2023-07-31T01:02:12;19.11;81.39
75088;HTU21D;63664;44.868;40.600;2023-07-31T01:04:39;19.06;81.54
75088;HTU21D;63664;44.868;40.600;2023-07-31T01:07:14;18.99;81.72
75088;HTU21D;63664;44.868;40.600;2023-07-31T01:12:34;18.95;81.83
75088;HTU21D;63664;44.868;40.600;2023-07-31T01:15:08;18.92;81.91
75088;HTU21D;63664;44.868;40.600;2023-07-31T01:17:39;18.91;81.88
75088;HTU21D;63664;44.868;40.600;2023-07-31T01:20:20;18.86;82.03
75088;HTU21D;63664;44.868;40.600;2023-07-31T01:23:29;18.84;81.98
75088;HTU21D;63664;44.868;40.600;2023-07-31T01:26:12;18.84;81.91
75088;HTU21D;63664;44.868;40.600;2023-07-31T01:29:32;18.83;81.92
75088;HTU21D;63664;44.868;40.600;2023-07-31T01:31:50;18.81;81.88
75088;HTU21D;63664;44.868;40.600;2023-07-31T01:34:18;18.79;81.23
75088;HTU21D;63664;44.868;40.600;2023-07-31T01:36:45;18.73;81.49
75088;HTU21D;63664;44.868;40.600;2023-07-31T01:39:11;18.70;81.77
75088;HTU21D;63664;44.868;40.600;2023-07-31T01:41:37;18.67;81.94
75088;HTU21D;63664;44.868;40.600;2023-07-31T01:44:04;18.64;82.09
75088;HTU21D;63664;44.868;40.600;2023-07-31T01:46:30;18.59;82.20
75088;HTU21D;63664;44.868;40.600;2023-07-31T01:48:57;18.58;82.36
75088;HTU21D;63664;44.868;40.600;2023-07-31T01:51:23;18.56;82.40
75088;HTU21D;63664;44.868;40.600;2023-07-31T01:53:50;18.55;82.49
75088;HTU21D;63664;44.868;40.600;2023-07-31T01:56:16;18.54;82.55
75088;HTU21D;63664;44.868;40.600;2023-07-31T01:58:42;18.52;82.61
75088;HTU21D;63664;44.868;40.600;2023-07-31T02:01:09;18.51;82.65
75088;HTU21D;63664;44.868;40.600;2023-07-31T02:03:35;18.50;82.74
75088;HTU21D;63664;44.868;40.600;2023-07-31T02:06:02;18.49;82.80
75088;HTU21D;63664;44.868;40.600;2023-07-31T02:08:28;18.47;82.91
75088;HTU21D;63664;44.868;40.600;2023-07-31T02:10:54;18.46;83.00
75088;HTU21D;63664;44.868;40.600;2023-07-31T02:13:20;18.44;83.06
75088;HTU21D;63664;44.868;40.600;2023-07-31T04:10:17;19.81;83.76
75088;HTU21D;63664;44.868;40.600;2023-07-31T04:12:43;19.87;83.89
75088;HTU21D;63664;44.868;40.600;2023-07-31T04:15:10;19.96;83.97
75088;HTU21D;63664;44.868;40.600;2023-07-31T04:17:36;20.05;83.90
75088;HTU21D;63664;44.868;40.600;2023-07-31T04:20:03;20.16;83.87
75088;HTU21D;63664;44.868;40.600;2023-07-31T04:22:29;20.26;83.74
75088;HTU21D;63664;44.868;40.600;2023-07-31T04:24:55;20.36;83.61
75088;HTU21D;63664;44.868;40.600;2023-07-31T04:27:22;20.46;83.56
75088;HTU21D;63664;44.868;40.600;2023-07-31T04:29:48;20.55;83.53
75088;HTU21D;63664;44.868;40.600;2023-07-31T04:32:14;20.64;83.44
75088;HTU21D;63664;44.868;40.600;2023-07-31T04:34:43;20.70;82.78
75088;HTU21D;63664;44.868;40.600;2023-07-31T04:37:10;20.79;82.67
75088;HTU21D;63664;44.868;40.600;2023-07-31T04:39:36;20.91;82.60
75088;HTU21D;63664;44.868;40.600;2023-07-31T04:42:02;21.02;82.31
75088;HTU21D;63664;44.868;40.600;2023-07-31T04:44:29;21.10;82.17
75088;HTU21D;63664;44.868;40.600;2023-07-31T04:46:56;21.22;81.95
75088;HTU21D;63664;44.868;40.600;2023-07-31T04:49:22;21.35;81.61
75088;HTU21D;63664;44.868;40.600;2023-07-31T04:51:48;21.52;81.14
75088;HTU21D;63664;44.868;40.600;2023-07-31T04:54:15;21.65;80.86
75088;HTU21D;63664;44.868;40.600;2023-07-31T04:56:41;21.82;80.37
75088;HTU21D;63664;44.868;40.600;2023-07-31T04:59:07;21.98;79.92
75088;HTU21D;63664;44.868;40.600;2023-07-31T05:01:34;22.06;79.69
75088;HTU21D;63664;44.868;40.600;2023-07-31T05:04:03;22.16;79.47
75088;HTU21D;63664;44.868;40.600;2023-07-31T05:06:29;22.29;79.01
75088;HTU21D;63664;44.868;40.600;2023-07-31T05:08:55;22.43;78.69
75088;HTU21D;63664;44.868;40.600;2023-07-31T05:11:22;22.56;78.28
75088;HTU21D;63664;44.868;40.600;2023-07-31T05:13:48;22.73;77.67
75088;HTU21D;63664;44.868;40.600;2023-07-31T05:16:14;22.86;77.23
75088;HTU21D;63664;44.868;40.600;2023-07-31T05:18:40;22.98;76.97
75088;HTU21D;63664;44.868;40.600;2023-07-31T05:21:07;23.13;76.43
75088;HTU21D;63664;44.868;40.600;2023-07-31T05:23:33;23.29;75.99
75088;HTU21D;63664;44.868;40.600;2023-07-31T05:26:06;23.46;75.64
75088;HTU21D;63664;44.868;40.600;2023-07-31T05:28:34;23.60;75.13
75088;HTU21D;63664;44.868;40.600;2023-07-31T05:31:02;23.79;74.58
75088;HTU21D;63664;44.868;40.600;2023-07-31T05:33:29;23.95;74.21
75088;HTU21D;63664;44.868;40.600;2023-07-31T05:35:55;24.10;73.70
75088;HTU21D;63664;44.868;40.600;2023-07-31T05:38:21;24.28;73.04
75088;HTU21D;63664;44.868;40.600;2023-07-31T05:40:48;24.50;72.48
75088;HTU21D;63664;44.868;40.600;2023-07-31T05:43:14;24.71;71.97
75088;HTU21D;63664;44.868;40.600;2023-07-31T05:45:42;24.89;71.42
75088;HTU21D;63664;44.868;40.600;2023-07-31T05:48:08;25.13;70.79
75088;HTU21D;63664;44.868;40.600;2023-07-31T05:50:35;25.34;70.07
75088;HTU21D;63664;44.868;40.600;2023-07-31T05:53:01;25.58;69.34
75088;HTU21D;63664;44.868;40.600;2023-07-31T05:55:27;25.81;68.33
75088;HTU21D;63664;44.868;40.600;2023-07-31T05:57:54;26.04;67.61
75088;HTU21D;63664;44.868;40.600;2023-07-31T06:00:21;26.24;67.01
75088;HTU21D;63664;44.868;40.600;2023-07-31T06:02:48;26.47;66.05
75088;HTU21D;63664;44.868;40.600;2023-07-31T06:05:15;26.72;65.06
75088;HTU21D;63664;44.868;40.600;2023-07-31T06:07:41;26.92;64.16
75088;HTU21D;63664;44.868;40.600;2023-07-31T06:10:07;27.12;62.96
75088;HTU21D;63664;44.868;40.600;2023-07-31T06:12:35;27.35;61.89
75088;HTU21D;63664;44.868;40.600;2023-07-31T06:15:02;27.56;60.93
75088;HTU21D;63664;44.868;40.600;2023-07-31T06:17:29;27.80;60.24
75088;HTU21D;63664;44.868;40.600;2023-07-31T06:19:56;28.00;59.41
75088;HTU21D;63664;44.868;40.600;2023-07-31T06:22:23;28.18;58.82
75088;HTU21D;63664;44.868;40.600;2023-07-31T06:24:49;28.37;57.89
75088;HTU21D;63664;44.868;40.600;2023-07-31T06:27:15;28.52;57.21
75088;HTU21D;63664;44.868;40.600;2023-07-31T06:29:42;28.67;56.44
75088;HTU21D;63664;44.868;40.600;2023-07-31T06:32:08;28.90;55.58
75088;HTU21D;63664;44.868;40.600;2023-07-31T06:34:35;29.13;54.95
75088;HTU21D;63664;44.868;40.600;2023-07-31T06:37:01;29.36;54.24
75088;HTU21D;63664;44.868;40.600;2023-07-31T06:39:27;29.60;53.76
75088;HTU21D;63664;44.868;40.600;2023-07-31T06:41:53;29.82;53.08
75088;HTU21D;63664;44.868;40.600;2023-07-31T06:44:20;30.01;52.60
75088;HTU21D;63664;44.868;40.600;2023-07-31T06:46:46;30.13;51.76
75088;HTU21D;63664;44.868;40.600;2023-07-31T06:49:12;30.22;51.21
75088;HTU21D;63664;44.868;40.600;2023-07-31T06:51:41;30.36;50.79
75088;HTU21D;63664;44.868;40.600;2023-07-31T06:54:08;30.48;50.18
75088;HTU21D;63664;44.868;40.600;2023-07-31T06:56:37;30.57;49.87
75088;HTU21D;63664;44.868;40.600;2023-07-31T06:59:03;30.68;49.27
75088;HTU21D;63664;44.868;40.600;2023-07-31T07:01:30;30.84;48.73
75088;HTU21D;63664;44.868;40.600;2023-07-31T07:03:56;30.93;47.99
75088;HTU21D;63664;44.868;40.600;2023-07-31T07:06:22;30.98;47.85
75088;HTU21D;63664;44.868;40.600;2023-07-31T07:08:49;31.13;47.18
75088;HTU21D;63664;44.868;40.600;2023-07-31T07:11:15;31.35;46.66
75088;HTU21D;63664;44.868;40.600;2023-07-31T07:13:41;31.52;46.11
75088;HTU21D;63664;44.868;40.600;2023-07-31T07:16:07;31.68;45.76
75088;HTU21D;63664;44.868;40.600;2023-07-31T07:18:34;31.85;45.36
75088;HTU21D;63664;44.868;40.600;2023-07-31T07:21:01;31.98;44.64
75088;HTU21D;63664;44.868;40.600;2023-07-31T07:23:28;32.10;44.19
75088;HTU21D;63664;44.868;40.600;2023-07-31T07:25:54;32.23;44.00
75088;HTU21D;63664;44.868;40.600;2023-07-31T07:28:21;32.40;43.32
75088;HTU21D;63664;44.868;40.600;2023-07-31T07:30:52;32.52;43.00
75088;HTU21D;63664;44.868;40.600;2023-07-31T07:33:19;32.68;42.61
75088;HTU21D;63664;44.868;40.600;2023-07-31T07:35:46;32.77;41.97
75088;HTU21D;63664;44.868;40.600;2023-07-31T07:38:14;32.82;41.62
75088;HTU21D;63664;44.868;40.600;2023-07-31T07:40:41;32.81;41.42
75088;HTU21D;63664;44.868;40.600;2023-07-31T07:43:07;32.94;41.50
75088;HTU21D;63664;44.868;40.600;2023-07-31T07:45:33;33.02;40.68
75088;HTU21D;63664;44.868;40.600;2023-07-31T07:48:00;32.96;40.30
75088;HTU21D;63664;44.868;40.600;2023-07-31T07:50:26;33.04;39.94
75088;HTU21D;63664;44.868;40.600;2023-07-31T07:52:52;33.20;39.61
75088;HTU21D;63664;44.868;40.600;2023-07-31T07:55:18;33.26;38.92
75088;HTU21D;63664;44.868;40.600;2023-07-31T07:57:45;33.27;38.98
75088;HTU21D;63664;44.868;40.600;2023-07-31T08:00:12;33.34;38.98
75088;HTU21D;63664;44.868;40.600;2023-07-31T08:02:42;33.42;38.27
75088;HTU21D;63664;44.868;40.600;2023-07-31T08:05:08;33.59;38.25
75088;HTU21D;63664;44.868;40.600;2023-07-31T08:07:34;33.75;37.88
75088;HTU21D;63664;44.868;40.600;2023-07-31T08:10:01;33.86;37.59
75088;HTU21D;63664;44.868;40.600;2023-07-31T08:12:28;33.91;37.36
75088;HTU21D;63664;44.868;40.600;2023-07-31T08:14:54;33.97;36.88
75088;HTU21D;63664;44.868;40.600;2023-07-31T08:17:20;34.08;36.41
75088;HTU21D;63664;44.868;40.600;2023-07-31T08:19:47;34.14;36.27
75088;HTU21D;63664;44.868;40.600;2023-07-31T08:22:13;34.27;36.01
75088;HTU21D;63664;44.868;40.600;2023-07-31T08:24:40;34.38;35.56
75088;HTU21D;63664;44.868;40.600;2023-07-31T08:27:06;34.48;35.50
75088;HTU21D;63664;44.868;40.600;2023-07-31T08:29:33;34.57;35.31
75088;HTU21D;63664;44.868;40.600;2023-07-31T08:31:59;34.68;34.85
75088;HTU21D;63664;44.868;40.600;2023-07-31T08:34:25;34.78;34.63
75088;HTU21D;63664;44.868;40.600;2023-07-31T08:36:52;34.74;34.35
75088;HTU21D;63664;44.868;40.600;2023-07-31T08:39:18;34.80;34.06
75088;HTU21D;63664;44.868;40.600;2023-07-31T08:41:45;34.79;33.96
75088;HTU21D;63664;44.868;40.600;2023-07-31T08:44:12;34.96;33.52
75088;HTU21D;63664;44.868;40.600;2023-07-31T08:46:40;35.08;33.26
75088;HTU21D;63664;44.868;40.600;2023-07-31T08:49:07;35.22;32.92
75088;HTU21D;63664;44.868;40.600;2023-07-31T08:51:36;35.23;32.79
75088;HTU21D;63664;44.868;40.600;2023-07-31T08:54:02;35.26;32.61
75088;HTU21D;63664;44.868;40.600;2023-07-31T08:56:32;35.38;32.57
75088;HTU21D;63664;44.868;40.600;2023-07-31T08:59:02;35.43;32.24
75088;HTU21D;63664;44.868;40.600;2023-07-31T09:01:32;35.50;32.12
75088;HTU21D;63664;44.868;40.600;2023-07-31T09:04:01;35.65;31.77
75088;HTU21D;63664;44.868;40.600;2023-07-31T09:06:30;35.66;31.69
75088;HTU21D;63664;44.868;40.600;2023-07-31T09:08:56;35.65;31.32
75088;HTU21D;63664;44.868;40.600;2023-07-31T09:11:24;35.66;31.41
75088;HTU21D;63664;44.868;40.600;2023-07-31T09:13:52;35.69;31.13
75088;HTU21D;63664;44.868;40.600;2023-07-31T09:16:18;35.75;30.99
75088;HTU21D;63664;44.868;40.600;2023-07-31T09:19:02;35.79;30.90
75088;HTU21D;63664;44.868;40.600;2023-07-31T09:21:30;35.83;30.64
75088;HTU21D;63664;44.868;40.600;2023-07-31T09:23:57;35.99;30.33
75088;HTU21D;63664;44.868;40.600;2023-07-31T09:26:34;36.07;30.17
75088;HTU21D;63664;44.868;40.600;2023-07-31T09:29:04;36.25;29.95
75088;HTU21D;63664;44.868;40.600;2023-07-31T09:31:40;36.29;29.55
75088;HTU21D;63664;44.868;40.600;2023-07-31T09:34:07;36.28;29.46
75088;HTU21D;63664;44.868;40.600;2023-07-31T09:36:50;36.27;29.41
75088;HTU21D;63664;44.868;40.600;2023-07-31T09:39:19;36.42;29.61
75088;HTU21D;63664;44.868;40.600;2023-07-31T09:41:55;36.58;29.49
75088;HTU21D;63664;44.868;40.600;2023-07-31T09:44:25;36.58;29.41
75088;HTU21D;63664;44.868;40.600;2023-07-31T09:47:03;36.77;29.26
75088;HTU21D;63664;44.868;40.600;2023-07-31T09:49:30;36.83;29.03
75088;HTU21D;63664;44.868;40.600;2023-07-31T09:51:56;37.05;28.90
75088;HTU21D;63664;44.868;40.600;2023-07-31T09:54:22;37.04;28.41
75088;HTU21D;63664;44.868;40.600;2023-07-31T09:56:49;36.99;28.57
75088;HTU21D;63664;44.868;40.600;2023-07-31T09:59:17;37.06;28.23
75088;HTU21D;63664;44.868;40.600;2023-07-31T10:24:52;37.21;27.69
75088;HTU21D;63664;44.868;40.600;2023-07-31T10:27:20;37.35;27.61
75088;HTU21D;63664;44.868;40.600;2023-07-31T10:29:47;37.29;27.36
75088;HTU21D;63664;44.868;40.600;2023-07-31T10:32:15;37.32;27.60
75088;HTU21D;63664;44.868;40.600;2023-07-31T10:34:43;37.38;27.71
75088;HTU21D;63664;44.868;40.600;2023-07-31T10:40:03;37.69;27.04
75088;HTU21D;63664;44.868;40.600;2023-07-31T10:42:35;37.73;26.97
75088;HTU21D;63664;44.868;40.600;2023-07-31T10:45:05;37.78;26.80
75088;HTU21D;63664;44.868;40.600;2023-07-31T10:47:37;37.80;26.62
75088;HTU21D;63664;44.868;40.600;2023-07-31T10:50:31;37.61;26.84
75088;HTU21D;63664;44.868;40.600;2023-07-31T10:53:01;37.55;26.36
75088;HTU21D;63664;44.868;40.600;2023-07-31T10:55:36;37.43;26.51
75088;HTU21D;63664;44.868;40.600;2023-07-31T10:58:10;37.50;26.38
75088;HTU21D;63664;44.868;40.600;2023-07-31T11:00:42;37.55;26.28
75088;HTU21D;63664;44.868;40.600;2023-07-31T11:03:19;37.41;26.43
75088;HTU21D;63664;44.868;40.600;2023-07-31T11:06:00;37.38;26.75
75088;HTU21D;63664;44.868;40.600;2023-07-31T11:08:43;37.40;26.39
75088;HTU21D;63664;44.868;40.600;2023-07-31T11:11:12;37.34;26.35
75088;HTU21D;63664;44.868;40.600;2023-07-31T11:13:47;37.31;26.33
75088;HTU21D;63664;44.868;40.600;2023-07-31T12:07:25;37.19;26.56
75088;HTU21D;63664;44.868;40.600;2023-07-31T12:09:55;37.01;26.77
75088;HTU21D;63664;44.868;40.600;2023-07-31T12:12:25;36.72;26.87
75088;HTU21D;63664;44.868;40.600;2023-07-31T12:14:52;36.58;27.07
75088;HTU21D;63664;44.868;40.600;2023-07-31T12:17:19;36.61;27.05
75088;HTU21D;63664;44.868;40.600;2023-07-31T12:19:49;36.72;26.88
75088;HTU21D;63664;44.868;40.600;2023-07-31T12:22:16;36.76;26.77
75088;HTU21D;63664;44.868;40.600;2023-07-31T12:24:43;36.70;26.72
75088;HTU21D;63664;44.868;40.600;2023-07-31T12:27:15;36.61;26.91
75088;HTU21D;63664;44.868;40.600;2023-07-31T12:29:42;36.46;26.87
75088;HTU21D;63664;44.868;40.600;2023-07-31T12:32:24;36.51;26.89
75088;HTU21D;63664;44.868;40.600;2023-07-31T12:34:51;36.55;26.71
75088;HTU21D;63664;44.868;40.600;2023-07-31T12:37:17;36.47;26.66
75088;HTU21D;63664;44.868;40.600;2023-07-31T12:39:44;36.48;26.67
75088;HTU21D;63664;44.868;40.600;2023-07-31T12:42:10;36.49;26.71
75088;HTU21D;63664;44.868;40.600;2023-07-31T12:44:36;36.43;26.65
75088;HTU21D;63664;44.868;40.600;2023-07-31T12:47:04;36.32;26.83
75088;HTU21D;63664;44.868;40.600;2023-07-31T12:49:30;36.27;26.75
75088;HTU21D;63664;44.868;40.600;2023-07-31T12:51:57;36.23;26.59
75088;HTU21D;63664;44.868;40.600;2023-07-31T12:54:23;36.23;26.66
75088;HTU21D;63664;44.868;40.600;2023-07-31T12:56:49;36.03;26.69
75088;HTU21D;63664;44.868;40.600;2023-07-31T13:07:22;35.86;26.91
75088;HTU21D;63664;44.868;40.600;2023-07-31T13:09:49;35.82;26.84
75088;HTU21D;63664;44.868;40.600;2023-07-31T13:12:15;35.77;26.99
75088;HTU21D;63664;44.868;40.600;2023-07-31T13:14:41;35.81;27.13
75088;HTU21D;63664;44.868;40.600;2023-07-31T13:17:07;35.85;27.03
75088;HTU21D;63664;44.868;40.600;2023-07-31T13:19:34;35.82;26.81
75088;HTU21D;63664;44.868;40.600;2023-07-31T13:22:00;35.85;26.85
75088;HTU21D;63664;44.868;40.600;2023-07-31T13:24:26;35.90;26.74
75088;HTU21D;63664;44.868;40.600;2023-07-31T13:26:52;35.93;26.66
75088;HTU21D;63664;44.868;40.600;2023-07-31T13:29:19;35.94;26.75
75088;HTU21D;63664;44.868;40.600;2023-07-31T13:31:46;35.85;26.77
75088;HTU21D;63664;44.868;40.600;2023-07-31T13:34:12;35.77;26.81
75088;HTU21D;63664;44.868;40.600;2023-07-31T13:36:38;35.71;26.97
75088;HTU21D;63664;44.868;40.600;2023-07-31T13:39:05;35.73;27.13
75088;HTU21D;63664;44.868;40.600;2023-07-31T13:41:31;35.72;27.13
75088;HTU21D;63664;44.868;40.600;2023-07-31T13:43:57;35.70;27.20
75088;HTU21D;63664;44.868;40.600;2023-07-31T13:46:24;35.55;27.49
75088;HTU21D;63664;44.868;40.600;2023-07-31T13:48:51;35.50;27.62
75088;HTU21D;63664;44.868;40.600;2023-07-31T13:51:22;35.40;27.78
75088;HTU21D;63664;44.868;40.600;2023-07-31T13:53:48;35.37;27.73
75088;HTU21D;63664;44.868;40.600;2023-07-31T13:56:14;35.29;27.84
75088;HTU21D;63664;44.868;40.600;2023-07-31T13:58:40;35.26;27.87
75088;HTU21D;63664;44.868;40.600;2023-07-31T14:01:07;35.28;28.00
75088;HTU21D;63664;44.868;40.600;2023-07-31T14:03:33;35.27;27.99
75088;HTU21D;63664;44.868;40.600;2023-07-31T14:05:59;35.09;28.17
75088;HTU21D;63664;44.868;40.600;2023-07-31T14:08:25;34.94;28.42
75088;HTU21D;63664;44.868;40.600;2023-07-31T14:10:52;34.91;28.46
75088;HTU21D;63664;44.868;40.600;2023-07-31T14:13:18;34.90;28.63
75088;HTU21D;63664;44.868;40.600;2023-07-31T14:15:44;34.97;28.62
75088;HTU21D;63664;44.868;40.600;2023-07-31T14:18:11;35.01;28.52
75088;HTU21D;63664;44.868;40.600;2023-07-31T14:20:37;34.94;28.60
75088;HTU21D;63664;44.868;40.600;2023-07-31T14:23:04;34.86;28.74
75088;HTU21D;63664;44.868;40.600;2023-07-31T14:25:30;34.77;28.69
75088;HTU21D;63664;44.868;40.600;2023-07-31T14:27:56;34.68;28.89
75088;HTU21D;63664;44.868;40.600;2023-07-31T14:30:23;34.57;29.02
75088;HTU21D;63664;44.868;40.600;2023-07-31T14:32:49;34.54;29.15
75088;HTU21D;63664;44.868;40.600;2023-07-31T14:35:15;34.40;29.26
75088;HTU21D;63664;44.868;40.600;2023-07-31T14:37:43;34.29;29.45
75088;HTU21D;63664;44.868;40.600;2023-07-31T14:40:11;34.19;29.57
75088;HTU21D;63664;44.868;40.600;2023-07-31T14:42:39;34.09;29.66
75088;HTU21D;63664;44.868;40.600;2023-07-31T14:45:07;34.02;29.78
75088;HTU21D;63664;44.868;40.600;2023-07-31T14:47:33;33.91;29.94
75088;HTU21D;63664;44.868;40.600;2023-07-31T14:50:00;33.81;30.12
75088;HTU21D;63664;44.868;40.600;2023-07-31T14:52:26;33.73;30.29
75088;HTU21D;63664;44.868;40.600;2023-07-31T14:54:53;33.66;30.38
75088;HTU21D;63664;44.868;40.600;2023-07-31T14:57:19;33.59;30.57
75088;HTU21D;63664;44.868;40.600;2023-07-31T14:59:46;33.52;30.86
75088;HTU21D;63664;44.868;40.600;2023-07-31T15:02:12;33.43;30.94
75088;HTU21D;63664;44.868;40.600;2023-07-31T15:04:39;33.33;31.12
75088;HTU21D;63664;44.868;40.600;2023-07-31T15:07:05;33.23;31.31
75088;HTU21D;63664;44.868;40.600;2023-07-31T15:09:31;33.16;31.42
75088;HTU21D;63664;44.868;40.600;2023-07-31T15:11:58;33.05;31.56
75088;HTU21D;63664;44.868;40.600;2023-07-31T15:14:24;32.98;31.65
75088;HTU21D;63664;44.868;40.600;2023-07-31T15:16:51;32.91;31.76
75088;HTU21D;63664;44.868;40.600;2023-07-31T15:19:18;32.84;31.90
75088;HTU21D;63664;44.868;40.600;2023-07-31T15:21:44;32.74;31.96
75088;HTU21D;63664;44.868;40.600;2023-07-31T15:24:10;32.67;32.15
75088;HTU21D;63664;44.868;40.600;2023-07-31T15:26:37;32.60;32.37
75088;HTU21D;63664;44.868;40.600;2023-07-31T15:29:05;32.54;32.57
75088;HTU21D;63664;44.868;40.600;2023-07-31T15:31:35;32.45;32.70
75088;HTU21D;63664;44.868;40.600;2023-07-31T15:34:01;32.37;32.82
75088;HTU21D;63664;44.868;40.600;2023-07-31T15:36:27;32.29;33.03
75088;HTU21D;63664;44.868;40.600;2023-07-31T15:38:53;32.22;33.06
75088;HTU21D;63664;44.868;40.600;2023-07-31T15:41:20;32.14;33.28
75088;HTU21D;63664;44.868;40.600;2023-07-31T15:43:46;32.08;33.51
75088;HTU21D;63664;44.868;40.600;2023-07-31T15:46:13;32.01;33.62
75088;HTU21D;63664;44.868;40.600;2023-07-31T15:48:39;31.95;33.76
75088;HTU21D;63664;44.868;40.600;2023-07-31T15:51:05;31.88;33.97
75088;HTU21D;63664;44.868;40.600;2023-07-31T15:53:32;31.80;34.07
75088;HTU21D;63664;44.868;40.600;2023-07-31T15:55:58;31.70;34.37
75088;HTU21D;63664;44.868;40.600;2023-07-31T15:58:25;31.60;34.57
75088;HTU21D;63664;44.868;40.600;2023-07-31T16:00:54;31.53;34.82
75088;HTU21D;63664;44.868;40.600;2023-07-31T16:03:20;31.44;35.01
75088;HTU21D;63664;44.868;40.600;2023-07-31T16:05:48;31.35;35.15
75088;HTU21D;63664;44.868;40.600;2023-07-31T16:08:14;31.26;35.36
75088;HTU21D;63664;44.868;40.600;2023-07-31T16:10:40;31.19;35.71
75088;HTU21D;63664;44.868;40.600;2023-07-31T16:13:07;31.10;35.83
75088;HTU21D;63664;44.868;40.600;2023-07-31T16:15:33;31.02;35.99
75088;HTU21D;63664;44.868;40.600;2023-07-31T16:18:00;30.96;36.20
75088;HTU21D;63664;44.868;40.600;2023-07-31T16:20:26;30.85;36.62
75088;HTU21D;63664;44.868;40.600;2023-07-31T16:22:54;30.77;37.04
75088;HTU21D;63664;44.868;40.600;2023-07-31T16:25:20;30.68;37.13
75088;HTU21D;63664;44.868;40.600;2023-07-31T16:27:46;30.60;37.70
75088;HTU21D;63664;44.868;40.600;2023-07-31T16:30:13;30.48;38.01
75088;HTU21D;63664;44.868;40.600;2023-07-31T16:32:39;30.37;38.34
75088;HTU21D;63664;44.868;40.600;2023-07-31T16:35:06;30.27;39.04
75088;HTU21D;63664;44.868;40.600;2023-07-31T16:37:33;30.16;39.49
75088;HTU21D;63664;44.868;40.600;2023-07-31T16:39:59;30.05;40.09
75088;HTU21D;63664;44.868;40.600;2023-07-31T16:42:26;29.91;40.60
75088;HTU21D;63664;44.868;40.600;2023-07-31T16:44:52;29.78;40.91
75088;HTU21D;63664;44.868;40.600;2023-07-31T16:47:18;29.65;41.39
75088;HTU21D;63664;44.868;40.600;2023-07-31T16:49:45;29.53;41.87
75088;HTU21D;63664;44.868;40.600;2023-07-31T16:52:11;29.43;42.29
75088;HTU21D;63664;44.868;40.600;2023-07-31T16:54:37;29.31;42.58
75088;HTU21D;63664;44.868;40.600;2023-07-31T16:57:04;29.20;42.91
75088;HTU21D;63664;44.868;40.600;2023-07-31T16:59:30;29.11;43.27
75088;HTU21D;63664;44.868;40.600;2023-07-31T17:01:56;28.97;43.58
75088;HTU21D;63664;44.868;40.600;2023-07-31T17:04:23;28.87;43.89
75088;HTU21D;63664;44.868;40.600;2023-07-31T17:06:49;28.77;44.16
75088;HTU21D;63664;44.868;40.600;2023-07-31T17:09:15;28.68;44.40
75088;HTU21D;63664;44.868;40.600;2023-07-31T17:11:42;28.55;44.67
75088;HTU21D;63664;44.868;40.600;2023-07-31T17:14:09;28.44;44.91
75088;HTU21D;63664;44.868;40.600;2023-07-31T17:16:35;28.32;45.22
75088;HTU21D;63664;44.868;40.600;2023-07-31T17:19:02;28.23;45.56
75088;HTU21D;63664;44.868;40.600;2023-07-31T17:21:29;28.13;45.86
75088;HTU21D;63664;44.868;40.600;2023-07-31T17:23:56;28.04;46.15
75088;HTU21D;63664;44.868;40.600;2023-07-31T17:26:23;27.96;46.44
75088;HTU21D;63664;44.868;40.600;2023-07-31T17:28:49;27.86;46.76
75088;HTU21D;63664;44.868;40.600;2023-07-31T17:31:16;27.76;47.05
75088;HTU21D;63664;44.868;40.600;2023-07-31T17:33:43;27.67;47.23
75088;HTU21D;63664;44.868;40.600;2023-07-31T17:36:09;27.57;47.48
75088;HTU21D;63664;44.868;40.600;2023-07-31T17:38:35;27.47;47.90
75088;HTU21D;63664;44.868;40.600;2023-07-31T17:41:01;27.39;48.30
75088;HTU21D;63664;44.868;40.600;2023-07-31T17:43:28;27.31;48.77
75088;HTU21D;63664;44.868;40.600;2023-07-31T17:45:54;27.23;48.98
75088;HTU21D;63664;44.868;40.600;2023-07-31T17:48:20;27.17;49.22
75088;HTU21D;63664;44.868;40.600;2023-07-31T17:50:52;27.09;49.59
75088;HTU21D;63664;44.868;40.600;2023-07-31T17:53:19;27.01;49.94
75088;HTU21D;63664;44.868;40.600;2023-07-31T17:55:47;26.95;50.27
75088;HTU21D;63664;44.868;40.600;2023-07-31T20:20:17;23.79;63.50
75088;HTU21D;63664;44.868;40.600;2023-07-31T20:22:44;23.75;63.97
75088;HTU21D;63664;44.868;40.600;2023-07-31T20:25:10;23.72;64.31
75088;HTU21D;63664;44.868;40.600;2023-07-31T20:27:36;23.68;64.67
75088;HTU21D;63664;44.868;40.600;2023-07-31T20:30:03;23.62;65.05
75088;HTU21D;63664;44.868;40.600;2023-07-31T20:32:30;23.59;65.22
75088;HTU21D;63664;44.868;40.600;2023-07-31T20:34:56;23.56;65.48
75088;HTU21D;63664;44.868;40.600;2023-07-31T20:37:22;23.52;65.73
75088;HTU21D;63664;44.868;40.600;2023-07-31T20:39:48;23.49;65.94
75088;HTU21D;63664;44.868;40.600;2023-07-31T20:42:15;23.45;66.17
75088;HTU21D;63664;44.868;40.600;2023-07-31T20:44:43;23.43;66.38
75088;HTU21D;63664;44.868;40.600;2023-07-31T20:47:09;23.38;66.61
75088;HTU21D;63664;44.868;40.600;2023-07-31T20:49:36;23.35;66.75